Time;durP1;ratioP1;P1;durP2;ratioP2;P2;SDS_P1;SDS_P2;PMS_P1;PMS_P2;Temp;Humidity;BMP_temperature;BMP_pressure;BME280_temperature;BME280_humidity;BME280_pressure;Samples;Min_cycle;Max_cycle;Signal;HPM_P1;HPM_P2
2023/06/20 00:00:08;;;;;;;19.30;13.43;;;;;;;15.68;94.58;97750.66;10450947;28;20542;-49
2023/06/20 00:05:07;;;;;;;18.55;13.50;;;;;;;15.62;94.68;97745.56;10451332;28;20135;-52
2023/06/20 00:10:08;;;;;;;23.17;14.82;;;;;;;15.61;94.35;97740.34;10452074;28;20032;-49
2023/06/20 00:15:07;;;;;;;19.90;14.65;;;;;;;15.59;94.60;97745.63;10452003;28;20064;-52
2023/06/20 00:20:08;;;;;;;21.52;15.88;;;;;;;15.53;94.76;97737.91;10451940;28;20135;-50
2023/06/20 00:25:07;;;;;;;22.38;17.60;;;;;;;15.54;94.68;97736.16;10451433;28;20063;-52
2023/06/20 00:30:08;;;;;;;19.08;14.98;;;;;;;15.48;94.42;97724.06;10451993;28;20066;-52
2023/06/20 00:35:07;;;;;;;19.48;14.45;;;;;;;15.41;94.00;97727.69;10451288;28;20062;-52
2023/06/20 00:40:07;;;;;;;18.40;13.80;;;;;;;15.33;94.59;97722.63;10450574;28;20047;-52
2023/06/20 00:45:39;;;;;;;20.55;14.27;;;;;;;15.27;94.44;97729.72;10451094;28;20066;-50
2023/06/20 00:50:38;;;;;;;19.98;14.73;;;;;;;15.13;94.64;97709.97;10424963;28;20136;-51
2023/06/20 00:55:37;;;;;;;21.67;16.02;;;;;;;15.15;94.22;97729.06;10452182;28;20469;-51
2023/06/20 01:00:38;;;;;;;26.48;15.55;;;;;;;14.80;94.29;97670.56;10453578;28;20051;-49
2023/06/20 01:05:37;;;;;;;22.95;16.00;;;;;;;15.09;94.70;97718.75;10452395;28;20082;-51
2023/06/20 01:10:52;;;;;;;27.10;17.77;;;;;;;15.07;94.39;97723.16;10453301;28;20070;-50
2023/06/20 01:16:20;;;;;;;24.45;17.15;;;;;;;14.97;94.63;97729.47;10452866;28;20062;-50
2023/06/20 01:21:25;;;;;;;28.88;16.90;;;;;;;14.92;94.91;97731.28;10415784;28;20071;-50
2023/06/20 01:26:31;;;;;;;24.15;16.95;;;;;;;14.79;94.90;97708.00;10451619;28;20067;-52
2023/06/20 01:31:37;;;;;;;23.00;16.10;;;;;;;14.85;94.72;97725.31;10452368;28;20059;-51
2023/06/20 01:36:39;;;;;;;22.65;15.98;;;;;;;14.79;95.01;97728.03;10452000;28;20075;-51
2023/06/20 01:41:42;;;;;;;27.35;15.52;;;;;;;14.71;95.53;97727.31;10452025;28;20063;-49
2023/06/20 01:46:41;;;;;;;22.25;15.38;;;;;;;14.67;96.40;97721.25;10449961;28;20075;-52
2023/06/20 01:51:40;;;;;;;;;;;;;;;14.62;96.07;97720.47;10451495;28;20042;-51
2023/06/20 01:56:39;;;;;;;22.20;15.37;;;;;;;14.54;97.04;97724.97;10448813;28;20414;-51
2023/06/20 02:01:42;;;;;;;28.15;15.73;;;;;;;14.35;96.64;97701.78;10447292;28;20118;-50
2023/06/20 02:06:43;;;;;;;25.85;16.67;;;;;;;14.22;96.66;97686.34;10448028;28;20079;-50
2023/06/20 02:11:44;;;;;;;27.20;16.85;;;;;;;14.10;96.97;97667.41;10447327;28;20059;-51
2023/06/20 02:16:47;;;;;;;26.88;16.02;;;;;;;14.30;97.18;97732.31;10446943;28;20489;-50
2023/06/20 02:21:47;;;;;;;24.92;16.40;;;;;;;14.24;97.45;97742.88;10447402;28;20505;-50
2023/06/20 02:26:48;;;;;;;26.77;17.02;;;;;;;14.12;97.47;97725.63;10446327;28;20075;-52
2023/06/20 02:31:49;;;;;;;27.00;17.02;;;;;;;14.12;97.89;97738.69;10447092;28;20115;-52
2023/06/20 02:36:50;;;;;;;28.30;16.58;;;;;;;14.10;98.10;97744.81;10446616;28;20047;-52
2023/06/20 02:41:49;;;;;;;25.05;16.98;;;;;;;13.85;98.15;97708.66;10446473;28;20118;-49
2023/06/20 02:47:17;;;;;;;25.92;17.42;;;;;;;14.08;98.50;97760.50;10446507;28;20122;-51
2023/06/20 02:52:34;;;;;;;27.52;16.98;;;;;;;14.07;98.10;97761.38;10446302;28;20111;-51
2023/06/20 02:57:37;;;;;;;25.83;16.48;;;;;;;14.08;98.32;97764.88;10446783;28;20071;-49
2023/06/20 03:03:09;;;;;;;45.75;17.40;;;;;;;14.12;98.23;97761.31;10446429;28;20091;-51
2023/06/20 03:08:10;;;;;;;25.30;16.38;;;;;;;14.17;98.05;97775.16;10435845;28;20060;-50
2023/06/20 03:13:14;;;;;;;26.15;16.55;;;;;;;13.94;98.55;97739.00;10447876;28;20547;-51
2023/06/20 03:18:13;;;;;;;25.85;17.23;;;;;;;14.22;98.91;97782.91;10454198;28;20056;-52
2023/06/20 03:23:12;;;;;;;;;;;;;;;14.26;98.35;97784.59;10454149;28;20131;-51
2023/06/20 03:28:11;;;;;;;30.90;16.73;;;;;;;14.32;98.15;97785.38;10453760;28;19920;-51
2023/06/20 03:33:10;;;;;;;28.30;16.35;;;;;;;14.39;97.92;97784.38;10452022;28;20545;-52
2023/06/20 03:38:09;;;;;;;;;;;;;;;14.50;98.11;97781.63;10453945;28;20407;-50
2023/06/20 03:43:08;;;;;;;27.20;18.60;;;;;;;14.63;97.42;97783.13;10454409;28;19911;-52
2023/06/20 03:48:07;;;;;;;25.40;18.42;;;;;;;14.70;97.08;97783.91;10451824;28;20127;-51
2023/06/20 03:53:06;;;;;;;25.30;17.27;;;;;;;14.76;96.71;97796.03;10452697;28;20072;-50
2023/06/20 03:58:05;;;;;;;;;;;;;;;14.86;95.53;97792.34;10453874;28;20024;-49
2023/06/20 04:03:04;;;;;;;22.37;15.23;;;;;;;14.62;95.90;97770.09;10452693;28;19951;-52
2023/06/20 04:08:03;;;;;;;;;;;;;;;14.69;96.14;97799.59;10453230;28;20039;-49
2023/06/20 04:13:02;;;;;;;27.40;14.53;;;;;;;14.15;95.97;97706.50;10452625;28;20414;-52
2023/06/20 04:18:01;;;;;;;;;;;;;;;14.89;95.65;97799.28;10452988;28;20106;-51
2023/06/20 04:22:59;;;;;;;21.88;14.07;;;;;;;15.01;95.19;97813.00;10452182;28;19912;-51
2023/06/20 04:27:58;;;;;;;;;;;;;;;15.22;94.98;97798.69;10451521;28;20453;-52
2023/06/20 04:32:57;;;;;;;22.07;14.50;;;;;;;15.42;94.68;97803.50;10452390;28;19915;-49
2023/06/20 04:38:01;;;;;;;;;;;;;;;15.66;94.09;97804.75;10452021;28;20032;-50
2023/06/20 04:42:59;;;;;;;19.23;13.65;;;;;;;15.86;93.52;97795.69;10450918;28;19963;-49
2023/06/20 04:47:58;;;;;;;20.77;14.27;;;;;;;15.93;92.75;97786.78;10451004;28;20111;-51
2023/06/20 04:52:57;;;;;;;19.38;13.85;;;;;;;15.81;92.61;97771.34;10447566;28;20027;-50
2023/06/20 04:57:56;;;;;;;;;;;;;;;16.23;92.54;97802.69;10439812;28;20090;-51
2023/06/20 05:02:58;;;;;;;20.00;13.57;;;;;;;16.52;91.40;97802.03;10446217;28;19923;-51
2023/06/20 05:07:57;;;;;;;20.48;14.18;;;;;;;16.69;91.71;97806.84;10449677;28;20167;-50
2023/06/20 05:12:56;;;;;;;18.70;14.45;;;;;;;16.88;90.57;97816.00;10446590;28;20567;-52
2023/06/20 05:17:55;;;;;;;21.10;15.68;;;;;;;16.76;90.58;97821.50;10450465;28;20038;-49
2023/06/20 05:22:54;;;;;;;23.42;15.25;;;;;;;16.97;90.24;97829.78;10445647;28;20123;-51
2023/06/20 05:27:53;;;;;;;23.20;14.23;;;;;;;17.14;90.02;97825.81;10448275;28;20430;-51
2023/06/20 05:32:52;;;;;;;20.38;14.27;;;;;;;17.46;88.80;97817.97;10445880;28;20039;-52
2023/06/20 05:37:51;;;;;;;17.95;12.95;;;;;;;17.82;87.93;97831.84;10448407;28;20426;-50
2023/06/20 05:42:50;;;;;;;16.27;12.52;;;;;;;17.89;86.35;97830.75;10448155;28;20203;-50
2023/06/20 05:47:49;;;;;;;16.13;11.70;;;;;;;17.92;85.59;97842.97;10446177;28;20042;-50
2023/06/20 05:52:48;;;;;;;17.13;11.48;;;;;;;18.10;84.11;97831.88;10445797;28;20042;-50
2023/06/20 05:57:47;;;;;;;22.90;11.32;;;;;;;18.43;82.96;97829.13;10449387;28;20079;-51
2023/06/20 06:02:46;;;;;;;17.20;10.73;;;;;;;18.86;81.62;97822.53;10446839;28;20068;-49
2023/06/20 06:07:45;;;;;;;14.10;10.40;;;;;;;19.10;79.30;97820.00;10449283;28;20122;-52
2023/06/20 06:12:44;;;;;;;22.90;13.13;;;;;;;19.24;79.75;97812.47;10450750;28;20039;-52
2023/06/20 06:17:43;;;;;;;24.42;12.90;;;;;;;19.22;80.72;97820.41;10451321;28;20032;-52
2023/06/20 06:22:42;;;;;;;30.40;14.00;;;;;;;19.45;79.69;97822.25;10451266;28;20063;-50
2023/06/20 06:27:41;;;;;;;21.92;13.52;;;;;;;19.85;79.08;97820.81;10448779;28;20056;-49
2023/06/20 06:32:42;;;;;;;16.48;11.45;;;;;;;20.14;75.89;97816.25;10446017;28;20050;-52
2023/06/20 06:37:41;;;;;;;13.45;11.27;;;;;;;20.55;74.81;97810.28;10449979;28;20063;-52
2023/06/20 06:42:40;;;;;;;16.70;10.40;;;;;;;20.91;69.99;97805.25;10449580;28;20036;-50
2023/06/20 06:47:39;;;;;;;13.48;9.52;;;;;;;21.39;71.00;97806.75;10452935;28;20470;-50
2023/06/20 06:52:39;;;;;;;14.35;10.55;;;;;;;21.75;67.17;97800.75;10458203;28;20055;-52
2023/06/20 06:57:38;;;;;;;12.98;9.77;;;;;;;21.94;65.70;97803.41;10452571;28;20064;-52
2023/06/20 07:02:37;;;;;;;13.23;9.60;;;;;;;22.30;63.54;97798.22;10454133;28;20040;-52
2023/06/20 07:07:37;;;;;;;16.08;10.30;;;;;;;22.49;62.98;97797.34;10450797;28;20147;-52
2023/06/20 07:12:36;;;;;;;12.20;10.00;;;;;;;22.95;60.98;97795.06;10453727;28;20063;-52
2023/06/20 07:17:36;;;;;;;14.32;10.23;;;;;;;23.35;58.50;97799.19;10444590;28;20195;-52
2023/06/20 07:22:35;;;;;;;15.82;9.60;;;;;;;23.81;60.14;97793.28;10451535;28;20079;-50
2023/06/20 07:27:34;;;;;;;18.98;10.40;;;;;;;24.14;57.83;97802.97;10446402;28;20484;-50
2023/06/20 07:32:33;;;;;;;18.70;10.60;;;;;;;24.17;55.76;97792.19;10452284;28;20413;-52
2023/06/20 07:37:32;;;;;;;19.33;9.90;;;;;;;23.87;56.96;97800.91;10450904;28;20032;-52
2023/06/20 07:42:31;;;;;;;14.02;9.95;;;;;;;23.69;59.71;97804.53;10446161;28;20040;-51
2023/06/20 07:47:30;;;;;;;18.52;9.90;;;;;;;23.89;57.56;97806.97;10443010;28;20040;-53
2023/06/20 07:52:30;;;;;;;16.60;9.65;;;;;;;23.93;57.24;97800.56;10451572;28;20085;-51
2023/06/20 07:57:29;;;;;;;16.23;10.05;;;;;;;24.15;56.81;97820.63;10451776;28;20056;-53
2023/06/20 08:02:31;;;;;;;13.80;9.55;;;;;;;24.54;56.70;97824.66;10451953;28;20054;-54
2023/06/20 08:07:31;;;;;;;14.57;10.18;;;;;;;24.73;55.22;97817.38;10451183;28;20119;-54
2023/06/20 08:12:30;;;;;;;11.95;8.13;;;;;;;24.88;54.69;97818.31;10448392;28;20061;-54
2023/06/20 08:17:29;;;;;;;12.57;8.50;;;;;;;24.94;51.77;97825.88;10444839;28;20123;-50
2023/06/20 08:22:28;;;;;;;12.07;8.32;;;;;;;25.08;52.30;97815.34;10450745;28;20550;-53
2023/06/20 08:27:27;;;;;;;10.68;7.47;;;;;;;25.35;51.66;97813.78;10442505;28;20051;-49
2023/06/20 08:32:26;;;;;;;8.30;6.80;;;;;;;25.26;50.34;97816.03;10444874;28;20028;-51
2023/06/20 08:37:25;;;;;;;8.32;7.43;;;;;;;25.39;50.31;97815.31;10449113;28;20026;-49
2023/06/20 08:42:24;;;;;;;7.88;6.80;;;;;;;25.56;47.77;97812.50;10447984;28;20036;-52
2023/06/20 08:47:23;;;;;;;9.10;7.10;;;;;;;26.08;48.21;97825.22;10447051;28;20103;-50
2023/06/20 08:52:29;;;;;;;8.55;6.78;;;;;;;26.49;44.93;97823.59;10447452;28;20123;-50
2023/06/20 08:57:28;;;;;;;8.45;7.03;;;;;;;26.50;44.40;97828.78;10445952;28;20182;-50
2023/06/20 09:02:27;;;;;;;9.10;6.88;;;;;;;26.36;45.94;97826.16;10444484;28;20511;-50
2023/06/20 09:07:34;;;;;;;8.27;7.22;;;;;;;26.80;43.34;97838.41;10445834;28;20055;-50
2023/06/20 09:12:49;;;;;;;7.28;6.38;;;;;;;27.44;42.52;97825.25;10442441;28;20127;-51
2023/06/20 09:17:49;;;;;;;8.48;6.20;;;;;;;28.04;43.01;97824.63;10444643;28;20122;-51
2023/06/20 09:22:48;;;;;;;8.32;6.68;;;;;;;28.35;39.92;97811.78;10447233;28;20082;-52
2023/06/20 09:27:48;;;;;;;9.13;6.50;;;;;;;27.86;38.92;97812.59;10444985;28;20025;-50
2023/06/20 09:32:47;;;;;;;8.05;5.78;;;;;;;27.48;39.87;97828.59;10444730;28;20153;-49
2023/06/20 09:37:48;;;;;;;8.57;6.30;;;;;;;27.23;41.16;97821.38;10437970;28;20162;-51
2023/06/20 09:42:48;;;;;;;9.20;6.55;;;;;;;27.07;40.35;97805.59;10444292;28;20221;-49
2023/06/20 09:47:47;;;;;;;8.85;6.07;;;;;;;26.99;40.18;97811.44;10442240;28;20127;-50
2023/06/20 09:52:48;;;;;;;9.82;6.60;;;;;;;26.86;41.12;97818.53;10444479;28;20151;-50
2023/06/20 09:57:51;;;;;;;8.00;6.60;;;;;;;26.65;42.05;97815.44;10442659;28;20201;-51
2023/06/20 10:02:50;;;;;;;12.32;6.35;;;;;;;26.53;42.13;97811.75;10435912;28;20694;-52
2023/06/20 10:07:49;;;;;;;7.65;6.63;;;;;;;26.39;42.78;97815.31;10443889;28;20692;-50
2023/06/20 10:12:48;;;;;;;9.10;6.75;;;;;;;26.64;41.99;97821.72;10440967;28;20126;-51
2023/06/20 10:17:49;;;;;;;8.27;6.47;;;;;;;26.65;42.52;97795.00;10453011;28;20058;-52
2023/06/20 10:22:49;;;;;;;8.40;6.15;;;;;;;26.99;43.01;97817.59;10443645;28;20479;-51
2023/06/20 10:27:57;;;;;;;8.55;7.10;;;;;;;27.18;41.61;97813.72;10445399;28;20059;-50
2023/06/20 10:33:10;;;;;;;9.80;7.32;;;;;;;27.44;41.11;97811.91;10443448;28;20127;-49
2023/06/20 10:38:09;;;;;;;10.32;7.65;;;;;;;27.27;41.47;97809.56;10445290;28;20076;-52
2023/06/20 10:43:14;;;;;;;8.52;6.50;;;;;;;27.10;40.60;97814.22;10445676;28;20143;-51
2023/06/20 10:48:13;;;;;;;8.05;6.63;;;;;;;27.38;41.89;97812.38;10442306;28;20115;-52
2023/06/20 10:53:13;;;;;;;9.05;7.05;;;;;;;27.55;40.75;97808.56;10444720;28;20032;-51
2023/06/20 10:58:12;;;;;;;8.30;6.10;;;;;;;27.97;41.39;97798.50;10445690;28;20567;-51
2023/06/20 11:03:11;;;;;;;8.35;6.57;;;;;;;27.99;39.42;97796.59;10428954;28;20557;-50
2023/06/20 11:08:10;;;;;;;7.03;6.32;;;;;;;27.75;38.75;97789.38;10442520;28;20033;-51
2023/06/20 11:13:09;;;;;;;10.98;6.13;;;;;;;27.66;39.30;97784.69;10445366;28;20071;-51
2023/06/20 11:18:09;;;;;;;9.13;6.32;;;;;;;27.56;39.43;97778.25;10444048;28;20115;-52
2023/06/20 11:23:10;;;;;;;8.68;6.63;;;;;;;27.81;40.72;97775.56;10443697;28;20489;-51
2023/06/20 11:28:11;;;;;;;7.47;6.50;;;;;;;27.95;39.13;97779.94;10444143;28;20146;-51
2023/06/20 11:33:12;;;;;;;7.93;6.40;;;;;;;28.08;39.07;97779.94;10444854;28;20131;-52
2023/06/20 11:38:14;;;;;;;14.52;7.38;;;;;;;27.97;38.72;97775.34;10452052;28;20068;-52
2023/06/20 11:43:25;;;;;;;9.40;7.13;;;;;;;28.11;38.99;97762.88;10451347;28;20558;-52
2023/06/20 11:48:24;;;;;;;9.98;6.55;;;;;;;28.07;38.37;97764.88;10453061;28;20582;-52
2023/06/20 11:53:29;;;;;;;9.40;6.68;;;;;;;27.57;37.35;97770.16;10450688;28;20128;-52
2023/06/20 11:58:35;;;;;;;7.40;6.35;;;;;;;27.64;37.76;97759.94;10447758;28;20082;-52
2023/06/20 12:03:36;;;;;;;8.82;6.75;;;;;;;27.90;37.04;97767.91;10449590;28;20574;-52
2023/06/20 12:08:35;;;;;;;7.75;5.63;;;;;;;27.80;36.42;97746.38;10450993;28;20118;-52
2023/06/20 12:13:34;;;;;;;7.00;6.25;;;;;;;28.03;35.42;97755.38;10451106;28;20047;-50
2023/06/20 12:18:33;;;;;;;9.52;5.70;;;;;;;28.19;36.37;97760.47;10450666;28;20123;-51
2023/06/20 12:23:32;;;;;;;8.20;6.30;;;;;;;27.97;34.03;97755.81;10450600;28;20152;-51
2023/06/20 12:28:32;;;;;;;10.27;5.65;;;;;;;27.98;33.88;97760.19;10450595;28;20056;-52
2023/06/20 12:33:31;;;;;;;7.53;6.22;;;;;;;28.01;33.68;97742.16;10449407;28;20074;-49
2023/06/20 12:38:34;;;;;;;7.15;5.68;;;;;;;28.45;33.99;97739.88;10446276;28;20564;-52
2023/06/20 12:43:33;;;;;;;6.78;5.63;;;;;;;28.52;34.25;97718.91;10409026;28;20150;-52
2023/06/20 12:48:31;;;;;;;8.15;5.60;;;;;;;28.39;33.72;97735.00;10448515;28;20041;-51
2023/06/20 12:53:30;;;;;;;6.88;6.25;;;;;;;28.32;34.93;97731.94;10446985;28;20522;-52
2023/06/20 12:58:32;;;;;;;7.57;5.97;;;;;;;28.62;33.89;97744.00;10447310;28;20133;-52
2023/06/20 13:03:31;;;;;;;8.40;5.80;;;;;;;28.53;34.90;97700.13;10447599;28;20132;-52
2023/06/20 13:08:30;;;;;;;6.78;5.25;;;;;;;28.74;33.08;97744.91;10448557;28;20125;-52
2023/06/20 13:13:29;;;;;;;6.85;5.20;;;;;;;28.56;34.08;97747.09;10449049;28;20444;-52
2023/06/20 13:18:28;;;;;;;6.75;5.95;;;;;;;28.77;35.34;97750.00;10444503;28;20123;-49
2023/06/20 13:23:27;;;;;;;5.85;5.25;;;;;;;28.80;34.82;97750.63;10448553;28;20075;-51
2023/06/20 13:28:26;;;;;;;5.93;5.22;;;;;;;28.62;34.22;97758.19;10446438;28;20115;-52
2023/06/20 13:33:25;;;;;;;7.28;5.95;;;;;;;28.30;35.25;97749.03;10461939;28;20056;-52
2023/06/20 13:38:24;;;;;;;7.63;5.95;;;;;;;28.54;35.68;97755.22;10447833;28;20130;-52
2023/06/20 13:43:23;;;;;;;7.53;5.80;;;;;;;28.22;36.32;97747.78;10447388;28;20035;-52
2023/06/20 13:48:22;;;;;;;6.28;5.68;;;;;;;28.18;36.56;97748.97;10447396;28;20147;-51
2023/06/20 13:53:21;;;;;;;7.47;6.15;;;;;;;28.43;36.56;97752.47;10449064;28;20051;-51
2023/06/20 13:58:21;;;;;;;8.30;6.28;;;;;;;28.30;37.22;97754.38;10448093;28;20031;-51
2023/06/20 14:03:19;;;;;;;8.63;5.97;;;;;;;28.23;39.22;97749.47;10448563;28;20075;-50
2023/06/20 14:08:19;;;;;;;6.60;5.90;;;;;;;28.55;36.60;97746.25;10441092;28;20123;-51
2023/06/20 14:13:17;;;;;;;8.77;6.45;;;;;;;28.73;37.55;97741.38;10448701;28;20056;-50
2023/06/20 14:18:16;;;;;;;8.13;6.07;;;;;;;28.56;37.99;97733.75;10446060;28;20713;-50
2023/06/20 14:23:15;;;;;;;6.80;5.78;;;;;;;28.38;35.64;97741.31;10448330;28;20044;-49
2023/06/20 14:28:17;;;;;;;7.90;5.80;;;;;;;28.32;35.36;97733.75;10448020;28;20558;-50
2023/06/20 14:33:16;;;;;;;6.95;5.70;;;;;;;27.64;36.09;97647.97;10447624;28;20075;-52
2023/06/20 14:38:15;;;;;;;10.63;6.15;;;;;;;28.13;37.71;97719.09;10448103;28;20031;-51
2023/06/20 14:43:14;;;;;;;8.15;6.65;;;;;;;28.46;37.56;97726.44;10441213;28;20483;-50
2023/06/20 14:48:13;;;;;;;9.25;6.30;;;;;;;28.36;36.39;97721.88;10445929;28;20428;-51
2023/06/20 14:53:12;;;;;;;7.20;6.20;;;;;;;28.43;37.22;97725.78;10446724;28;20514;-51
2023/06/20 14:58:11;;;;;;;10.88;7.03;;;;;;;28.51;37.60;97728.75;10448136;28;20537;-51
2023/06/20 15:03:10;;;;;;;8.88;6.25;;;;;;;28.54;37.38;97738.34;10448457;28;20040;-51
2023/06/20 15:08:10;;;;;;;6.85;5.97;;;;;;;27.98;37.10;97667.66;10450344;28;20078;-52
2023/06/20 15:19:08;;;;;;;8.30;5.75;;;;;;;28.16;34.39;97718.03;10459545;28;20067;-52
2023/06/20 15:24:08;;;;;;;8.40;6.20;;;;;;;27.87;35.89;97722.75;10444226;28;20047;-52
2023/06/20 15:29:10;;;;;;;7.90;6.35;;;;;;;28.03;36.61;97731.34;10451680;28;20122;-51
2023/06/20 15:34:09;;;;;;;7.40;6.53;;;;;;;28.05;37.61;97719.59;10450861;28;20060;-50
2023/06/20 15:39:08;;;;;;;7.88;6.80;;;;;;;27.84;38.16;97721.16;10452003;28;20039;-51
2023/06/20 15:44:07;;;;;;;8.63;6.38;;;;;;;28.02;39.56;97722.50;10453111;28;20688;-51
2023/06/20 15:49:06;;;;;;;8.57;6.47;;;;;;;27.88;39.50;97720.00;10444976;28;20040;-50
2023/06/20 15:54:05;;;;;;;8.25;6.28;;;;;;;27.69;40.36;97720.47;10454193;28;20093;-52
2023/06/20 15:59:04;;;;;;;8.70;6.75;;;;;;;27.64;40.63;97730.59;10453663;28;20070;-51
2023/06/20 16:04:03;;;;;;;8.60;7.07;;;;;;;27.61;40.91;97734.34;10453044;28;20044;-52
2023/06/20 16:09:02;;;;;;;11.07;6.47;;;;;;;27.64;40.73;97738.59;10453849;28;21617;-52
2023/06/20 16:14:01;;;;;;;8.68;6.32;;;;;;;27.55;40.70;97731.25;10453206;28;20063;-50
2023/06/20 16:19:00;;;;;;;7.78;6.38;;;;;;;27.53;41.12;97736.69;10453270;28;20111;-51
2023/06/20 16:24:00;;;;;;;8.85;6.97;;;;;;;27.17;40.63;97700.13;10451978;28;20035;-51
2023/06/20 16:28:59;;;;;;;8.80;6.60;;;;;;;27.39;40.98;97734.09;10452180;28;20071;-52
2023/06/20 16:33:58;;;;;;;9.60;6.90;;;;;;;27.48;41.28;97733.50;10452215;28;20044;-50
2023/06/20 16:38:56;;;;;;;8.02;6.50;;;;;;;27.57;40.86;97732.00;10452366;28;20101;-52
2023/06/20 16:43:55;;;;;;;7.57;6.75;;;;;;;27.44;41.16;97731.13;10451944;28;20891;-51
2023/06/20 16:48:54;;;;;;;7.32;6.22;;;;;;;27.34;41.05;97722.94;10451867;28;20154;-51
2023/06/20 16:53:53;;;;;;;7.65;6.88;;;;;;;27.19;41.98;97716.88;10452613;28;21511;-51
2023/06/20 16:58:53;;;;;;;8.38;7.07;;;;;;;27.03;41.88;97716.22;10451827;28;20061;-51
2023/06/20 17:03:52;;;;;;;10.30;7.20;;;;;;;27.24;41.71;97733.38;10451594;28;20134;-52
2023/06/20 17:08:51;;;;;;;9.98;8.00;;;;;;;27.06;42.40;97739.97;10453865;28;20119;-51
2023/06/20 17:13:50;;;;;;;10.05;7.93;;;;;;;26.99;42.49;97739.53;10448482;28;20082;-50
2023/06/20 17:18:49;;;;;;;9.25;7.28;;;;;;;26.82;42.75;97739.78;10447466;28;20039;-51
2023/06/20 17:23:48;;;;;;;11.48;7.88;;;;;;;26.64;43.43;97742.72;10446190;28;20067;-51
2023/06/20 17:28:47;;;;;;;11.88;8.32;;;;;;;26.43;43.83;97755.63;10443365;28;20039;-51
2023/06/20 17:33:46;;;;;;;14.70;7.43;;;;;;;26.24;43.91;97758.63;10445979;28;20454;-51
2023/06/20 17:38:45;;;;;;;8.60;6.95;;;;;;;26.03;43.55;97758.19;10448437;28;20481;-51
2023/06/20 17:43:44;;;;;;;10.55;7.65;;;;;;;25.83;45.77;97764.78;10447808;28;20097;-50
2023/06/20 17:48:43;;;;;;;13.60;7.90;;;;;;;25.76;47.20;97775.88;10446423;28;20526;-49
2023/06/20 17:53:43;;;;;;;10.30;8.43;;;;;;;25.58;48.52;97775.22;10447839;28;20047;-49
2023/06/20 17:58:42;;;;;;;12.13;8.38;;;;;;;25.33;49.56;97766.91;10447060;28;20134;-53
2023/06/20 18:03:41;;;;;;;12.70;8.45;;;;;;;25.00;50.31;97771.59;10446140;28;20126;-51
2023/06/20 18:08:40;;;;;;;10.48;8.55;;;;;;;24.67;51.42;97780.56;10446536;28;20028;-51
2023/06/20 18:13:39;;;;;;;10.32;8.65;;;;;;;23.62;53.04;97669.75;10446758;28;20123;-52
2023/06/20 18:18:38;;;;;;;11.77;8.70;;;;;;;23.93;54.94;97784.66;10445819;28;20030;-52
2023/06/20 18:23:37;;;;;;;10.85;8.73;;;;;;;23.60;55.43;97788.19;10447022;28;20139;-50
2023/06/20 18:28:39;;;;;;;12.75;9.10;;;;;;;23.42;56.28;97810.34;10445965;28;20043;-51
2023/06/20 18:33:38;;;;;;;14.55;10.45;;;;;;;23.14;58.53;97809.09;10445137;28;20082;-52
2023/06/20 18:38:42;;;;;;;12.63;9.90;;;;;;;22.85;58.86;97809.72;10446244;28;20127;-51
2023/06/20 18:43:41;;;;;;;12.52;9.68;;;;;;;22.63;59.10;97826.63;10444941;28;20055;-50
2023/06/20 18:48:40;;;;;;;14.13;10.85;;;;;;;22.39;59.61;97832.16;10444694;28;20183;-50
2023/06/20 18:53:39;;;;;;;12.57;10.68;;;;;;;21.94;60.28;97811.31;10446732;28;20112;-50
2023/06/20 18:58:38;;;;;;;11.40;9.20;;;;;;;21.82;61.62;97841.81;10445434;28;20115;-50
2023/06/20 19:03:37;;;;;;;12.40;8.40;;;;;;;21.57;61.83;97854.38;10445693;28;20056;-52
2023/06/20 19:08:36;;;;;;;10.48;8.48;;;;;;;21.40;61.59;97863.03;10446157;28;20052;-52
2023/06/20 19:13:35;;;;;;;12.60;8.93;;;;;;;21.27;61.93;97858.31;10445692;28;20136;-51
2023/06/20 19:18:34;;;;;;;12.23;8.63;;;;;;;21.15;62.98;97869.34;10445548;28;20032;-51
2023/06/20 19:23:34;;;;;;;9.60;8.52;;;;;;;21.04;63.55;97876.84;10445544;28;20059;-52
2023/06/20 19:28:33;;;;;;;10.60;8.32;;;;;;;20.92;63.87;97867.66;10445775;28;20135;-52
2023/06/20 19:33:32;;;;;;;11.27;8.82;;;;;;;20.84;65.21;97877.66;10444541;28;20051;-50
2023/06/20 19:38:31;;;;;;;11.50;9.00;;;;;;;20.67;64.80;97873.06;10444735;28;20074;-51
2023/06/20 19:43:30;;;;;;;11.10;8.52;;;;;;;20.55;64.97;97868.28;10443977;28;20121;-49
2023/06/20 19:48:29;;;;;;;13.45;8.65;;;;;;;20.36;65.61;97868.97;10443336;28;20122;-50
2023/06/20 19:53:29;;;;;;;10.45;8.50;;;;;;;20.27;65.53;97878.06;10445513;28;20031;-48
2023/06/20 19:58:28;;;;;;;11.60;8.55;;;;;;;20.24;66.02;97870.28;10452518;28;20067;-51
2023/06/20 20:03:28;;;;;;;10.35;8.80;;;;;;;20.15;66.64;97867.16;10452166;28;20048;-51
2023/06/20 20:08:27;;;;;;;10.10;8.45;;;;;;;20.00;67.12;97876.47;10452479;28;20522;-52
2023/06/20 20:13:26;;;;;;;12.65;9.05;;;;;;;19.84;67.24;97863.88;10447458;28;20038;-52
2023/06/20 20:18:25;;;;;;;12.43;9.48;;;;;;;19.77;67.93;97870.28;10451846;28;20039;-51
2023/06/20 20:23:24;;;;;;;12.90;9.98;;;;;;;19.65;69.15;97876.00;10451509;28;20034;-49
2023/06/20 20:28:23;;;;;;;12.70;10.07;;;;;;;19.56;70.43;97877.19;10493421;28;20482;-51
2023/06/20 20:33:22;;;;;;;11.18;9.52;;;;;;;19.42;71.11;97880.25;10492937;28;20558;-51
2023/06/20 20:38:21;;;;;;;12.77;9.82;;;;;;;19.31;71.90;97882.38;10474284;28;20090;-51
2023/06/20 20:43:20;;;;;;;15.05;11.30;;;;;;;19.22;74.01;97888.81;10450399;28;20067;-50
2023/06/20 20:48:21;;;;;;;17.45;12.27;;;;;;;19.12;77.12;97897.09;10449121;28;20452;-50
2023/06/20 20:53:20;;;;;;;18.73;13.40;;;;;;;19.01;77.59;97890.38;10450171;28;20150;-51
2023/06/20 20:58:19;;;;;;;14.85;12.10;;;;;;;18.97;77.91;97888.78;10449971;28;20159;-52
2023/06/20 21:03:18;;;;;;;18.15;13.15;;;;;;;18.87;78.21;97882.09;10448856;28;20042;-52
2023/06/20 21:08:17;;;;;;;17.42;12.68;;;;;;;18.82;78.54;97873.50;10448757;28;20064;-49
2023/06/20 21:13:17;;;;;;;21.73;14.38;;;;;;;18.72;79.66;97872.94;10449172;28;20368;-49
2023/06/20 21:18:16;;;;;;;26.55;15.43;;;;;;;18.58;81.32;97861.97;10449297;28;20079;-51
2023/06/20 21:23:16;;;;;;;19.67;13.18;;;;;;;18.51;82.74;97874.44;10450105;28;20038;-50
2023/06/20 21:28:15;;;;;;;19.05;13.65;;;;;;;18.39;83.84;97882.72;10448458;28;20119;-50
2023/06/20 21:33:14;;;;;;;21.05;14.32;;;;;;;18.36;83.06;97880.16;10448735;28;20116;-52
2023/06/20 21:38:13;;;;;;;19.67;13.88;;;;;;;18.15;85.04;97882.53;10448631;28;20123;-51
2023/06/20 21:43:12;;;;;;;18.90;15.18;;;;;;;17.50;85.75;97789.00;10447471;28;20047;-50
2023/06/20 21:48:11;;;;;;;18.58;13.90;;;;;;;17.95;85.97;97877.00;10448638;28;20136;-51
2023/06/20 21:53:10;;;;;;;18.95;14.35;;;;;;;17.90;85.70;97877.13;10447892;28;20120;-52
2023/06/20 21:58:10;;;;;;;17.30;13.93;;;;;;;17.83;85.76;97866.84;10448581;28;20067;-51
2023/06/20 22:03:09;;;;;;;18.05;13.50;;;;;;;17.74;86.28;97874.03;10447548;28;20487;-52
2023/06/20 22:08:08;;;;;;;20.08;13.80;;;;;;;17.72;86.15;97873.22;10446356;28;20476;-50
2023/06/20 22:13:07;;;;;;;19.50;15.10;;;;;;;17.67;86.23;97874.25;10448832;28;20118;-52
2023/06/20 22:18:06;;;;;;;19.70;15.00;;;;;;;17.63;86.47;97872.63;10446957;28;20494;-50
2023/06/20 22:23:05;;;;;;;18.92;14.07;;;;;;;17.60;86.36;97870.09;10446450;28;20067;-51
2023/06/20 22:28:05;;;;;;;18.23;13.38;;;;;;;17.53;86.58;97861.50;10446404;28;20044;-52
2023/06/20 22:33:09;;;;;;;18.88;14.40;;;;;;;17.47;87.45;97859.03;10446260;28;20066;-51
2023/06/20 22:38:09;;;;;;;19.20;13.40;;;;;;;17.47;87.20;97856.41;10446083;28;20494;-51
2023/06/20 22:43:08;;;;;;;18.60;14.32;;;;;;;17.41;87.61;97851.34;10446324;28;20135;-51
2023/06/20 22:48:08;;;;;;;19.20;15.35;;;;;;;17.39;88.05;97847.91;10445302;28;20058;-52
2023/06/20 22:53:07;;;;;;;19.80;14.60;;;;;;;17.37;88.86;97850.56;10447075;28;20533;-52
2023/06/20 22:58:06;;;;;;;19.80;15.68;;;;;;;17.28;90.10;97849.03;10446642;28;20542;-51
2023/06/20 23:03:04;;;;;;;21.02;15.05;;;;;;;17.06;91.85;97847.91;10443895;28;20400;-51
2023/06/20 23:08:03;;;;;;;25.20;15.43;;;;;;;16.93;91.60;97849.94;10446258;28;20114;-51